createdAt,value
2022-08-02T00:02:17.563Z,19.00
2022-08-02T00:07:09.720Z,18.80
2022-08-02T00:12:01.843Z,18.80
2022-08-02T00:16:54.062Z,18.70
2022-08-02T00:21:46.390Z,18.70
2022-08-02T00:26:38.609Z,18.60
2022-08-02T00:31:30.948Z,18.60
2022-08-02T00:36:23.068Z,18.50
2022-08-02T00:41:18.892Z,18.30
2022-08-02T00:46:11.795Z,18.20
2022-08-02T00:51:04.677Z,18.10
2022-08-02T00:55:56.876Z,18.00
2022-08-02T01:00:50.297Z,18.00
2022-08-02T01:06:10.318Z,17.90
2022-08-02T01:10:56.631Z,17.80
2022-08-02T01:15:58.326Z,17.70
2022-08-02T01:21:08.802Z,17.60
2022-08-02T01:26:19.416Z,17.60
2022-08-02T01:31:20.071Z,17.60
2022-08-02T01:36:14.242Z,17.60
2022-08-02T01:41:10.891Z,17.60
2022-08-02T01:46:05.769Z,17.60
2022-08-02T01:50:59.220Z,17.60
2022-08-02T01:55:56.992Z,17.40
2022-08-02T02:00:53.942Z,17.30
2022-08-02T02:05:49.741Z,17.20
2022-08-02T02:10:44.961Z,17.10
2022-08-02T02:15:41.481Z,17.10
2022-08-02T02:20:33.973Z,17.30
2022-08-02T02:25:36.111Z,17.40
2022-08-02T02:30:35.519Z,17.40
2022-08-02T02:35:37.443Z,17.40
2022-08-02T02:40:31.164Z,17.50
2022-08-02T02:45:25.470Z,17.40
2022-08-02T02:50:18.805Z,17.20
2022-08-02T02:55:12.269Z,17.20
2022-08-02T03:00:11.982Z,17.10
2022-08-02T03:05:05.452Z,17.10
2022-08-02T03:09:57.604Z,17.00
2022-08-02T03:14:49.868Z,17.10
2022-08-02T03:19:42.062Z,17.10
2022-08-02T03:24:34.129Z,17.10
2022-08-02T03:29:26.367Z,17.10
2022-08-02T03:34:18.805Z,17.10
2022-08-02T03:39:12.901Z,17.10
2022-08-02T03:44:06.872Z,17.20
2022-08-02T03:48:59.049Z,17.10
2022-08-02T03:53:52.006Z,17.10
2022-08-02T03:58:48.635Z,17.20
2022-08-02T04:03:41.369Z,17.40
2022-08-02T04:08:38.055Z,17.70
2022-08-02T04:13:35.824Z,17.90
2022-08-02T04:18:34.827Z,18.20
2022-08-02T04:23:27.693Z,18.60
2022-08-02T04:28:27.748Z,19.60
2022-08-02T04:33:21.384Z,19.90
2022-08-02T04:38:14.923Z,21.60
2022-08-02T04:43:07.539Z,23.10
2022-08-02T04:48:05.009Z,21.90
2022-08-02T04:52:57.971Z,21.10
2022-08-02T04:57:58.000Z,21.20
2022-08-02T05:02:51.861Z,21.10
2022-08-02T05:07:44.111Z,21.20
2022-08-02T05:12:38.322Z,22.30
2022-08-02T05:17:30.393Z,25.60
2022-08-02T05:22:23.036Z,27.00
2022-08-02T05:27:17.259Z,29.80
2022-08-02T05:32:14.101Z,29.30
2022-08-02T05:37:09.696Z,26.70
2022-08-02T05:42:02.288Z,28.00
2022-08-02T05:46:54.336Z,29.20
2022-08-02T05:51:59.473Z,30.10
2022-08-02T05:57:05.000Z,32.80
2022-08-02T06:02:02.490Z,31.00
2022-08-02T06:07:02.169Z,29.30
2022-08-02T06:12:01.699Z,34.30
2022-08-02T06:16:56.160Z,37.80
2022-08-02T06:22:32.695Z,39.70
2022-08-02T06:27:03.154Z,40.80
2022-08-02T06:31:55.745Z,41.10
2022-08-02T06:37:05.835Z,42.40
2022-08-02T06:42:02.996Z,40.70
2022-08-02T06:47:11.090Z,41.60
2022-08-02T06:52:06.238Z,38.60
2022-08-02T06:56:58.759Z,36.20
2022-08-02T07:01:51.937Z,39.30
2022-08-02T07:06:45.604Z,42.00
2022-08-02T07:11:39.133Z,42.90
2022-08-02T07:16:32.734Z,42.10
2022-08-02T07:21:57.071Z,42.70
2022-08-02T07:26:55.245Z,43.10
2022-08-02T07:31:53.295Z,42.90
2022-08-02T07:36:46.774Z,42.40
2022-08-02T07:41:42.610Z,43.70
2022-08-02T07:46:35.724Z,44.60
2022-08-02T07:51:29.237Z,45.90
2022-08-02T07:56:21.718Z,44.00
2022-08-02T08:01:15.378Z,44.10
2022-08-02T08:06:07.725Z,45.30
2022-08-02T08:10:59.817Z,45.70
2022-08-02T08:15:52.745Z,44.90
2022-08-02T08:20:44.989Z,43.90
2022-08-02T08:25:39.917Z,44.40
2022-08-02T08:30:33.744Z,44.70
2022-08-02T08:35:29.632Z,45.20
2022-08-02T08:40:25.322Z,45.40
2022-08-02T08:45:18.227Z,45.90
2022-08-02T08:50:18.966Z,45.70
2022-08-02T08:55:15.091Z,45.40
2022-08-02T09:00:08.119Z,46.40
2022-08-02T09:05:01.134Z,44.80
2022-08-02T09:09:53.762Z,43.20
2022-08-02T09:14:50.190Z,40.80
2022-08-02T09:19:46.057Z,40.20
2022-08-02T09:24:51.496Z,43.00
2022-08-02T09:30:14.191Z,45.30
2022-08-02T09:35:02.082Z,46.40
2022-08-02T09:39:59.757Z,46.80
2022-08-02T09:45:02.273Z,48.70
2022-08-02T09:49:55.820Z,48.70
2022-08-02T09:54:48.169Z,47.90
2022-08-02T09:59:53.540Z,48.80
2022-08-02T10:04:52.306Z,47.00
2022-08-02T10:09:48.621Z,48.50
2022-08-02T10:14:45.068Z,49.40
2022-08-02T10:20:02.754Z,49.00
2022-08-02T10:24:52.829Z,49.50
2022-08-02T10:29:55.008Z,47.80
2022-08-02T10:34:57.591Z,47.30
2022-08-02T10:39:59.160Z,47.90
2022-08-02T10:45:10.354Z,48.20
2022-08-02T10:50:06.222Z,46.20
2022-08-02T10:55:01.115Z,43.90
2022-08-02T10:59:57.765Z,45.40
2022-08-02T11:04:50.109Z,47.60
2022-08-02T11:09:44.038Z,46.80
2022-08-02T11:14:51.185Z,46.30
2022-08-02T11:20:16.150Z,46.60
2022-08-02T11:25:29.686Z,46.00
2022-08-02T11:30:28.453Z,45.50
2022-08-02T11:35:24.261Z,42.10
2022-08-02T11:40:20.078Z,42.00
2022-08-02T11:45:21.067Z,40.80
2022-08-02T11:50:15.087Z,38.50
2022-08-02T11:55:09.121Z,36.90
2022-08-02T12:00:01.370Z,36.00
2022-08-02T12:04:58.487Z,35.30
2022-08-02T12:09:50.774Z,34.40
2022-08-02T12:14:44.359Z,33.40
2022-08-02T12:19:38.946Z,33.30
2022-08-02T12:24:31.124Z,33.50
2022-08-02T12:29:55.968Z,33.50
2022-08-02T12:35:01.975Z,33.50
2022-08-02T12:39:54.205Z,33.30
2022-08-02T12:44:59.723Z,33.30
2022-08-02T12:50:11.657Z,33.40
2022-08-02T12:56:02.509Z,33.10
2022-08-02T13:00:40.158Z,33.00
2022-08-02T13:05:56.883Z,32.90
2022-08-02T13:10:48.620Z,33.20
2022-08-02T13:15:46.640Z,32.80
2022-08-02T13:20:45.551Z,33.00
2022-08-02T13:25:38.088Z,33.00
2022-08-02T13:30:30.089Z,33.10
2022-08-02T13:35:22.245Z,33.10
2022-08-02T13:40:22.723Z,32.70
2022-08-02T13:45:15.283Z,32.50
2022-08-02T13:50:08.096Z,32.50
2022-08-02T13:55:00.291Z,32.50
2022-08-02T13:59:56.223Z,32.40
2022-08-02T14:04:50.853Z,32.40
2022-08-02T14:09:43.791Z,32.30
2022-08-02T14:14:36.385Z,31.80
2022-08-02T14:19:28.954Z,31.70
2022-08-02T14:24:23.818Z,31.90
2022-08-02T14:29:17.129Z,32.30
2022-08-02T14:34:09.291Z,32.40
2022-08-02T14:39:02.054Z,32.50
2022-08-02T14:44:06.293Z,32.90
2022-08-02T14:49:01.903Z,33.10
2022-08-02T14:54:03.093Z,32.80
2022-08-02T14:58:55.751Z,32.50
2022-08-02T15:03:47.974Z,32.40
2022-08-02T15:08:40.162Z,32.40
2022-08-02T15:13:39.253Z,32.40
2022-08-02T15:18:34.691Z,32.20
2022-08-02T15:23:37.229Z,32.30
2022-08-02T15:28:31.597Z,32.20
2022-08-02T15:33:23.837Z,32.00
2022-08-02T15:38:16.285Z,31.80
2022-08-02T15:43:08.907Z,31.70
2022-08-02T15:48:01.213Z,31.50
2022-08-02T15:52:55.778Z,31.40
2022-08-02T15:57:48.009Z,31.40
2022-08-02T16:02:40.173Z,31.30
2022-08-02T16:07:32.354Z,31.40
2022-08-02T16:12:32.468Z,31.40
2022-08-02T16:17:49.468Z,31.40
2022-08-02T16:22:38.817Z,31.10
2022-08-02T16:27:30.923Z,30.90
2022-08-02T16:32:23.066Z,31.00
2022-08-02T16:37:15.573Z,31.00
2022-08-02T16:42:07.954Z,30.80
2022-08-02T16:47:00.872Z,30.60
2022-08-02T16:51:54.185Z,30.40
2022-08-02T16:56:46.337Z,30.40
2022-08-02T17:02:02.941Z,30.40
2022-08-02T17:06:52.101Z,30.40
2022-08-02T17:11:46.649Z,30.40
2022-08-02T17:16:39.123Z,30.30
2022-08-02T17:21:34.210Z,30.30
2022-08-02T17:26:26.507Z,30.20
2022-08-02T17:31:20.822Z,30.10
2022-08-02T17:36:21.679Z,29.90
2022-08-02T17:41:15.338Z,29.80
2022-08-02T17:46:08.019Z,29.50
2022-08-02T17:51:00.096Z,29.30
2022-08-02T17:55:52.616Z,29.10
2022-08-02T18:00:54.226Z,29.00
2022-08-02T18:05:53.711Z,28.80
2022-08-02T18:10:47.888Z,28.70
2022-08-02T18:15:40.008Z,28.60
2022-08-02T18:20:32.485Z,28.40
2022-08-02T18:25:37.389Z,28.20
2022-08-02T18:30:36.255Z,28.00
2022-08-02T18:35:29.433Z,27.80
2022-08-02T18:40:21.711Z,27.60
2022-08-02T18:45:19.424Z,27.40
2022-08-02T18:50:12.734Z,27.30
2022-08-02T18:55:17.021Z,27.00
2022-08-02T19:00:13.411Z,26.80
2022-08-02T19:05:07.000Z,26.60
2022-08-02T19:09:59.296Z,26.50
2022-08-02T19:14:51.818Z,26.30
2022-08-02T19:19:44.595Z,26.20
2022-08-02T19:24:39.725Z,26.20
2022-08-02T19:29:43.377Z,26.00
2022-08-02T19:34:41.614Z,26.00
2022-08-02T19:39:39.353Z,25.90
2022-08-02T19:44:31.931Z,25.80
2022-08-02T19:49:40.147Z,25.70
2022-08-02T19:54:54.371Z,25.50
2022-08-02T19:59:45.087Z,25.40
2022-08-02T20:04:38.574Z,25.30
2022-08-02T20:09:33.465Z,25.20
2022-08-02T20:14:39.405Z,25.00
2022-08-02T20:19:46.356Z,24.90
2022-08-02T20:24:40.125Z,24.80
2022-08-02T20:29:42.998Z,24.60
2022-08-02T20:34:37.531Z,24.50
2022-08-02T20:39:43.073Z,24.40
2022-08-02T20:44:36.216Z,24.40
2022-08-02T20:49:41.085Z,24.30
2022-08-02T20:54:34.010Z,24.20
2022-08-02T20:59:27.714Z,24.20
2022-08-02T21:04:21.097Z,24.30
2022-08-02T21:09:13.808Z,24.40
2022-08-02T21:14:08.805Z,24.40
2022-08-02T21:19:01.334Z,24.20
2022-08-02T21:24:03.144Z,24.00
2022-08-02T21:28:55.356Z,23.80
2022-08-02T21:33:58.864Z,23.70
2022-08-02T21:38:58.377Z,23.60
2022-08-02T21:43:50.549Z,23.50
2022-08-02T21:48:43.142Z,23.40
2022-08-02T21:53:42.247Z,23.40
2022-08-02T21:58:35.118Z,23.30
2022-08-02T22:03:29.618Z,23.30
2022-08-02T22:08:21.838Z,23.20
2022-08-02T22:13:15.993Z,23.10
2022-08-02T22:18:14.583Z,23.00
2022-08-02T22:23:22.727Z,22.80
2022-08-02T22:28:38.404Z,22.70
2022-08-02T22:34:06.023Z,22.60
2022-08-02T22:39:19.405Z,22.50
2022-08-02T22:44:15.151Z,22.40
2022-08-02T22:49:37.051Z,22.30
2022-08-02T22:54:22.979Z,22.20
2022-08-02T23:04:11.935Z,22.10
2022-08-02T23:09:04.397Z,22.00
2022-08-02T23:13:56.554Z,21.90
2022-08-02T23:19:07.182Z,21.80
2022-08-02T23:24:00.005Z,21.90
2022-08-02T23:28:52.160Z,21.70
2022-08-02T23:34:03.587Z,21.60
2022-08-02T23:38:57.558Z,21.40
2022-08-02T23:44:11.399Z,21.50
2022-08-02T23:49:01.995Z,21.40
2022-08-02T23:53:54.165Z,21.20
2022-08-02T23:58:46.484Z,21.20
